createdAt,value
2018-11-27T00:01:18.735Z,101482.92
2018-11-27T00:03:58.118Z,101481.95
2018-11-27T00:06:28.078Z,101482.53
2018-11-27T00:08:58.142Z,101484.21
2018-11-27T00:11:28.127Z,101490.16
2018-11-27T00:13:58.056Z,101482.66
2018-11-27T00:16:27.971Z,101481.81
2018-11-27T00:18:57.934Z,101485.05
2018-11-27T00:21:28.024Z,101489.62
2018-11-27T00:23:58.845Z,101495.58
2018-11-27T00:26:28.806Z,101492.91
2018-11-27T00:28:58.785Z,101494.53
2018-11-27T00:31:28.771Z,101486.16
2018-11-27T00:33:59.461Z,101486.94
2018-11-27T00:36:29.398Z,101492.80
2018-11-27T00:38:59.372Z,101492.80
2018-11-27T00:41:29.327Z,101498.17
2018-11-27T00:44:00.086Z,101492.19
2018-11-27T00:46:30.073Z,101492.19
2018-11-27T00:49:00.039Z,101499.45
2018-11-27T00:51:29.950Z,101500.27
2018-11-27T00:54:00.761Z,101506.96
2018-11-27T00:56:30.652Z,101516.36
2018-11-27T00:59:00.632Z,101507.75
2018-11-27T01:01:30.557Z,101516.25
2018-11-27T01:04:01.370Z,101524.69
2018-11-27T01:06:31.310Z,101521.81
2018-11-27T01:09:01.183Z,101523.88
2018-11-27T01:11:31.947Z,101520.81
2018-11-27T01:14:01.908Z,101513.55
2018-11-27T01:16:31.909Z,101513.30
2018-11-27T01:19:01.850Z,101514.83
2018-11-27T01:21:31.833Z,101517.95
2018-11-27T01:24:02.553Z,101524.30
2018-11-27T01:26:32.588Z,101530.91
2018-11-27T01:29:02.557Z,101521.02
2018-11-27T01:31:32.441Z,101526.22
2018-11-27T01:34:02.471Z,101527.30
2018-11-27T01:36:32.448Z,101527.83
2018-11-27T01:39:02.403Z,101520.59
2018-11-27T01:41:32.377Z,101520.39
2018-11-27T01:44:02.357Z,101526.05
2018-11-27T01:46:32.276Z,101524.39
2018-11-27T01:49:02.424Z,101521.44
2018-11-27T01:51:33.143Z,101524.72
2018-11-27T01:54:03.091Z,101531.76
2018-11-27T01:56:33.002Z,101530.11
2018-11-27T01:59:02.951Z,101531.13
2018-11-27T02:01:32.906Z,101534.66
2018-11-27T02:04:02.891Z,101534.66
2018-11-27T02:06:32.881Z,101526.82
2018-11-27T02:09:02.834Z,101534.45
2018-11-27T02:11:32.918Z,101531.36
2018-11-27T02:14:03.639Z,101530.94
2018-11-27T02:16:33.593Z,101532.52
2018-11-27T02:19:03.532Z,101533.86
2018-11-27T02:21:33.418Z,101527.35
2018-11-27T02:24:03.407Z,101527.21
2018-11-27T02:26:33.302Z,101522.37
2018-11-27T02:29:04.078Z,101528.19
2018-11-27T02:31:34.400Z,101523.32
2018-11-27T02:34:04.838Z,101527.78
2018-11-27T02:36:34.786Z,101535.25
2018-11-27T02:39:06.144Z,101527.25
2018-11-27T02:41:36.024Z,101533.77
2018-11-27T02:44:07.063Z,101537.16
2018-11-27T02:46:36.993Z,101532.37
2018-11-27T02:49:07.128Z,101539.14
2018-11-27T02:51:37.049Z,101531.40
2018-11-27T02:54:06.948Z,101532.28
2018-11-27T02:56:37.941Z,101533.91
2018-11-27T02:59:08.348Z,101535.83
2018-11-27T03:01:40.929Z,101536.41
2018-11-27T03:04:10.841Z,101543.72
2018-11-27T03:06:40.946Z,101542.14
2018-11-27T03:09:13.595Z,101550.52
2018-11-27T03:11:43.468Z,101538.94
2018-11-27T03:14:13.386Z,101553.28
2018-11-27T03:16:44.067Z,101554.86
2018-11-27T03:19:14.221Z,101558.16
2018-11-27T03:21:46.723Z,101558.45
2018-11-27T03:24:16.659Z,101557.89
2018-11-27T03:26:48.358Z,101556.17
2018-11-27T03:29:20.203Z,101555.29
2018-11-27T03:31:50.935Z,101560.64
2018-11-27T03:34:20.963Z,101556.83
2018-11-27T03:36:50.966Z,101560.36
2018-11-27T03:39:20.903Z,101565.25
2018-11-27T03:41:51.135Z,101558.98
2018-11-27T03:44:21.124Z,101564.00
2018-11-27T03:46:51.155Z,101564.91
2018-11-27T03:49:21.163Z,101569.64
2018-11-27T03:51:51.081Z,101573.02
2018-11-27T03:54:21.070Z,101571.95
2018-11-27T03:56:51.054Z,101576.59
2018-11-27T03:59:21.079Z,101581.02
2018-11-27T04:01:50.969Z,101574.91
2018-11-27T04:04:20.872Z,101577.77
2018-11-27T04:06:50.794Z,101583.87
2018-11-27T04:09:20.766Z,101588.55
2018-11-27T04:11:51.567Z,101590.77
2018-11-27T04:14:21.872Z,101591.98
2018-11-27T04:16:51.808Z,101590.37
2018-11-27T04:19:21.778Z,101592.63
2018-11-27T04:21:51.734Z,101593.56
2018-11-27T04:24:23.407Z,101597.25
2018-11-27T04:26:52.428Z,101591.22
2018-11-27T04:29:23.199Z,101599.30
2018-11-27T04:31:53.897Z,101592.10
2018-11-27T04:34:23.872Z,101596.95
2018-11-27T04:36:53.796Z,101595.06
2018-11-27T04:39:23.847Z,101595.06
2018-11-27T04:41:56.648Z,101599.11
2018-11-27T04:44:26.959Z,101597.25
2018-11-27T04:46:56.883Z,101601.30
2018-11-27T04:49:26.797Z,101608.12
2018-11-27T04:51:56.732Z,101606.48
2018-11-27T04:54:26.623Z,101614.62
2018-11-27T04:56:57.348Z,101610.58
2018-11-27T04:59:27.338Z,101612.44
2018-11-27T05:01:58.078Z,101614.86
2018-11-27T05:04:27.949Z,101613.48
2018-11-27T05:06:58.133Z,101615.91
2018-11-27T05:09:28.097Z,101617.49
2018-11-27T05:11:58.078Z,101617.49
2018-11-27T05:14:28.129Z,101629.05
2018-11-27T05:16:58.129Z,101633.66
2018-11-27T05:19:27.996Z,101633.93
2018-11-27T05:21:58.023Z,101629.73
2018-11-27T05:24:28.007Z,101631.23
2018-11-27T05:26:57.987Z,101634.77
2018-11-27T05:29:27.983Z,101629.56
2018-11-27T05:31:58.062Z,101629.50
2018-11-27T05:34:28.903Z,101624.02
2018-11-27T05:36:58.776Z,101630.78
2018-11-27T05:39:28.774Z,101630.78
2018-11-27T05:41:58.683Z,101637.09
2018-11-27T05:44:28.582Z,101642.39
2018-11-27T05:46:58.624Z,101646.32
2018-11-27T05:49:28.508Z,101647.20
2018-11-27T05:52:01.515Z,101649.47
2018-11-27T05:54:31.503Z,101644.80
2018-11-27T05:57:01.473Z,101647.32
2018-11-27T05:59:34.047Z,101647.11
2018-11-27T06:02:04.043Z,101653.58
2018-11-27T06:04:34.031Z,101653.58
2018-11-27T06:07:04.771Z,101658.52
2018-11-27T06:09:37.500Z,101652.44
2018-11-27T06:12:07.443Z,101658.45
2018-11-27T06:14:37.381Z,101656.80
2018-11-27T06:17:08.532Z,101656.25
2018-11-27T06:19:38.407Z,101659.75
2018-11-27T06:22:08.589Z,101663.30
2018-11-27T06:24:38.512Z,101670.88
2018-11-27T06:27:09.021Z,101673.58
2018-11-27T06:29:39.029Z,101679.00
2018-11-27T06:32:08.965Z,101689.78
2018-11-27T06:34:38.887Z,101693.56
2018-11-27T06:37:08.917Z,101687.36
2018-11-27T06:39:40.728Z,101694.36
2018-11-27T06:42:10.745Z,101689.70
2018-11-27T06:44:40.701Z,101692.63
2018-11-27T06:47:10.787Z,101700.80
2018-11-27T06:49:40.647Z,101704.80
2018-11-27T06:52:11.745Z,101706.45
2018-11-27T06:54:41.691Z,101715.80
2018-11-27T06:57:11.555Z,101713.69
2018-11-27T06:59:41.568Z,101709.69
2018-11-27T07:02:18.401Z,101712.97
2018-11-27T07:04:48.348Z,101718.94
2018-11-27T07:07:19.067Z,101725.40
2018-11-27T07:09:49.003Z,101730.56
2018-11-27T07:12:19.285Z,101730.75
2018-11-27T07:14:49.198Z,101742.69
2018-11-27T07:17:19.086Z,101748.37
2018-11-27T07:19:48.957Z,101753.62
2018-11-27T07:22:18.918Z,101754.62
2018-11-27T07:24:48.827Z,101753.86
2018-11-27T07:27:18.897Z,101757.28
2018-11-27T07:29:48.841Z,101761.98
2018-11-27T07:32:19.651Z,101763.95
2018-11-27T07:34:49.601Z,101765.72
2018-11-27T07:37:22.108Z,101768.33
2018-11-27T07:39:55.076Z,101767.75
2018-11-27T07:42:25.168Z,101770.38
2018-11-27T07:44:55.032Z,101769.83
2018-11-27T07:47:24.927Z,101766.61
2018-11-27T07:49:54.909Z,101768.87
2018-11-27T07:52:24.911Z,101762.70
2018-11-27T07:54:56.752Z,101764.08
2018-11-27T07:57:26.967Z,101765.50
2018-11-27T07:59:56.839Z,101770.16
2018-11-27T08:02:26.794Z,101774.27
2018-11-27T08:04:56.810Z,101781.31
2018-11-27T08:07:26.764Z,101776.56
2018-11-27T08:09:56.726Z,101773.92
2018-11-27T08:12:26.867Z,101773.52
2018-11-27T08:14:56.906Z,101772.20
2018-11-27T08:17:27.234Z,101779.21
2018-11-27T08:19:57.172Z,101785.18
2018-11-27T08:22:27.056Z,101789.56
2018-11-27T08:24:57.022Z,101795.27
2018-11-27T08:27:28.026Z,101792.32
2018-11-27T08:29:57.946Z,101798.26
2018-11-27T08:32:27.854Z,101799.61
2018-11-27T08:34:57.959Z,101798.02
2018-11-27T08:37:28.001Z,101799.66
2018-11-27T08:40:01.200Z,101805.06
2018-11-27T08:42:38.229Z,101807.20
2018-11-27T08:45:12.821Z,101813.64
2018-11-27T08:47:43.641Z,101811.75
2018-11-27T08:50:20.668Z,101812.56
2018-11-27T08:52:58.083Z,101814.21
2018-11-27T08:55:38.526Z,101815.09
2018-11-27T08:58:22.255Z,101815.41
2018-11-27T09:00:54.878Z,101812.97
2018-11-27T09:03:25.681Z,101815.10
2018-11-27T09:05:55.674Z,101811.56
2018-11-27T09:08:25.621Z,101815.37
2018-11-27T09:10:55.955Z,101810.80
2018-11-27T09:13:25.839Z,101813.53
2018-11-27T09:15:55.827Z,101818.11
2018-11-27T09:18:27.169Z,101815.95
2018-11-27T09:20:57.120Z,101828.89
2018-11-27T09:23:29.317Z,101829.45
2018-11-27T09:25:59.406Z,101832.12
2018-11-27T09:28:29.298Z,101837.53
2018-11-27T09:31:00.071Z,101843.20
2018-11-27T09:33:30.194Z,101845.11
2018-11-27T09:36:00.178Z,101846.98
2018-11-27T09:38:30.342Z,101846.16
2018-11-27T09:41:01.213Z,101840.77
2018-11-27T09:43:31.082Z,101840.77
2018-11-27T09:46:03.545Z,101833.23
2018-11-27T09:48:40.173Z,101836.22
2018-11-27T09:51:10.872Z,101833.23
2018-11-27T09:53:41.560Z,101835.68
2018-11-27T09:56:11.576Z,101836.22
2018-11-27T09:58:41.731Z,101833.28
2018-11-27T10:01:11.655Z,101831.41
2018-11-27T10:03:42.488Z,101830.05
2018-11-27T10:06:13.255Z,101824.94
2018-11-27T10:08:43.245Z,101819.25
2018-11-27T10:11:13.305Z,101817.89
2018-11-27T10:13:43.289Z,101813.03
2018-11-27T10:16:14.007Z,101816.30
2018-11-27T10:18:44.006Z,101798.46
2018-11-27T10:21:13.966Z,101815.50
2018-11-27T10:23:43.896Z,101802.78
2018-11-27T10:26:13.914Z,101806.55
2018-11-27T10:28:43.786Z,101807.38
2018-11-27T10:31:13.691Z,101809.82
2018-11-27T10:33:43.857Z,101804.94
2018-11-27T10:36:14.687Z,101814.41
2018-11-27T10:38:44.617Z,101814.14
2018-11-27T10:41:14.521Z,101810.88
2018-11-27T10:43:45.350Z,101813.06
2018-11-27T10:46:15.236Z,101810.62
2018-11-27T10:48:45.987Z,101814.15
2018-11-27T10:51:16.080Z,101811.98
2018-11-27T10:53:46.021Z,101810.05
2018-11-27T10:56:16.041Z,101816.81
2018-11-27T10:58:46.036Z,101809.53
2018-11-27T11:01:33.181Z,101813.86
2018-11-27T11:04:03.217Z,101821.13
2018-11-27T11:06:33.672Z,101819.23
2018-11-27T11:09:08.230Z,101825.73
2018-11-27T11:11:38.949Z,101828.73
2018-11-27T11:14:09.712Z,101837.67
2018-11-27T11:16:39.690Z,101833.07
2018-11-27T11:19:09.978Z,101829.81
2018-11-27T11:21:39.927Z,101832.79
2018-11-27T11:24:09.794Z,101829.00
2018-11-27T11:26:39.681Z,101829.84
2018-11-27T11:29:09.621Z,101830.08
2018-11-27T11:31:39.673Z,101835.48
2018-11-27T11:34:09.556Z,101836.30
2018-11-27T11:36:39.532Z,101837.94
2018-11-27T11:39:11.408Z,101829.50
2018-11-27T11:41:41.368Z,101837.61
2018-11-27T11:44:14.105Z,101845.71
2018-11-27T11:46:46.452Z,101845.39
2018-11-27T11:49:16.367Z,101837.59
2018-11-27T11:51:46.488Z,101833.02
2018-11-27T11:54:16.351Z,101832.47
2018-11-27T11:56:52.649Z,101839.78
2018-11-27T11:59:22.628Z,101842.79
2018-11-27T12:01:53.285Z,101848.16
2018-11-27T12:04:24.099Z,101851.44
2018-11-27T12:06:54.091Z,101855.20
2018-11-27T12:09:24.147Z,101849.77
2018-11-27T12:11:54.189Z,101852.98
2018-11-27T12:14:26.481Z,101846.50
2018-11-27T12:16:56.411Z,101850.03
2018-11-27T12:19:26.468Z,101840.83
2018-11-27T12:21:56.348Z,101842.22
2018-11-27T12:24:26.511Z,101850.28
2018-11-27T12:26:57.220Z,101845.72
2018-11-27T12:29:27.256Z,101853.86
2018-11-27T12:31:57.269Z,101852.22
2018-11-27T12:34:27.160Z,101856.55
2018-11-27T12:36:57.239Z,101859.27
2018-11-27T12:39:27.126Z,101858.73
2018-11-27T12:41:57.886Z,101855.73
2018-11-27T12:44:27.812Z,101860.59
2018-11-27T12:46:57.815Z,101865.78
2018-11-27T12:49:27.739Z,101876.34
2018-11-27T12:51:57.656Z,101873.65
2018-11-27T12:54:27.544Z,101876.59
2018-11-27T12:56:57.512Z,101879.29
2018-11-27T12:59:27.395Z,101870.64
2018-11-27T13:01:57.466Z,101870.13
2018-11-27T13:04:27.515Z,101877.68
2018-11-27T13:06:57.568Z,101874.15
2018-11-27T13:09:27.634Z,101876.88
2018-11-27T13:11:57.682Z,101869.83
2018-11-27T13:14:27.572Z,101875.75
2018-11-27T13:16:57.577Z,101866.31
2018-11-27T13:19:27.493Z,101871.45
2018-11-27T13:21:57.369Z,101867.95
2018-11-27T13:24:27.301Z,101869.59
2018-11-27T13:26:57.188Z,101867.41
2018-11-27T13:29:29.833Z,101864.45
2018-11-27T13:31:59.759Z,101853.33
2018-11-27T13:34:29.660Z,101853.33
2018-11-27T13:36:59.773Z,101862.54
2018-11-27T13:39:36.610Z,101861.73
2018-11-27T13:42:08.449Z,101860.11
2018-11-27T13:44:38.858Z,101864.17
2018-11-27T13:47:08.818Z,101863.61
2018-11-27T13:49:38.929Z,101862.53
2018-11-27T13:52:08.883Z,101854.71
2018-11-27T13:54:38.782Z,101852.00
2018-11-27T13:57:08.885Z,101854.41
2018-11-27T13:59:38.785Z,101861.21
2018-11-27T14:02:09.591Z,101870.66
2018-11-27T14:04:39.559Z,101870.38
2018-11-27T14:07:09.572Z,101863.34
2018-11-27T14:09:39.575Z,101869.81
2018-11-27T14:12:09.552Z,101870.37
2018-11-27T14:14:39.544Z,101866.63
2018-11-27T14:17:10.372Z,101867.13
2018-11-27T14:19:42.030Z,101866.59
2018-11-27T14:22:11.930Z,101876.05
2018-11-27T14:24:41.995Z,101874.70
2018-11-27T14:27:11.993Z,101875.79
2018-11-27T14:29:42.050Z,101880.41
2018-11-27T14:32:11.981Z,101885.25
2018-11-27T14:34:41.933Z,101885.50
2018-11-27T14:37:11.924Z,101884.42
2018-11-27T14:39:41.899Z,101888.48
2018-11-27T14:42:11.846Z,101893.86
2018-11-27T14:44:41.687Z,101898.20
2018-11-27T14:47:11.656Z,101904.98
2018-11-27T14:49:41.681Z,101908.51
2018-11-27T14:52:11.691Z,101910.38
2018-11-27T14:54:41.674Z,101906.33
2018-11-27T14:57:11.594Z,101903.63
2018-11-27T14:59:41.467Z,101910.91
2018-11-27T15:02:11.459Z,101918.45
2018-11-27T15:04:41.484Z,101912.53
2018-11-27T15:07:11.390Z,101918.74
2018-11-27T15:09:41.431Z,101913.89
2018-11-27T15:12:11.341Z,101910.11
2018-11-27T15:14:41.381Z,101905.21
2018-11-27T15:17:11.395Z,101909.27
2018-11-27T15:19:43.683Z,101907.13
2018-11-27T15:22:13.721Z,101904.70
2018-11-27T15:24:43.626Z,101911.42
2018-11-27T15:27:15.393Z,101909.79
2018-11-27T15:29:44.605Z,101912.22
2018-11-27T15:32:14.633Z,101913.84
2018-11-27T15:34:44.584Z,101913.84
2018-11-27T15:37:14.612Z,101915.21
2018-11-27T15:39:44.715Z,101907.35
2018-11-27T15:42:14.635Z,101911.66
2018-11-27T15:44:44.590Z,101912.48
2018-11-27T15:47:14.496Z,101908.45
2018-11-27T15:49:47.248Z,101913.86
2018-11-27T15:52:17.179Z,101903.05
2018-11-27T15:54:48.821Z,101899.80
2018-11-27T15:57:19.396Z,101909.22
2018-11-27T15:59:49.491Z,101908.69
2018-11-27T16:02:19.381Z,101912.20
2018-11-27T16:04:49.459Z,101914.90
2018-11-27T16:07:19.509Z,101915.42
2018-11-27T16:09:49.582Z,101910.53
2018-11-27T16:12:20.563Z,101913.53
2018-11-27T16:14:51.389Z,101913.28
2018-11-27T16:17:21.401Z,101914.34
2018-11-27T16:19:51.391Z,101906.80
2018-11-27T16:22:21.373Z,101907.90
2018-11-27T16:24:51.490Z,101905.71
2018-11-27T16:27:23.658Z,101902.72
2018-11-27T16:29:53.897Z,101898.03
2018-11-27T16:32:23.865Z,101903.97
2018-11-27T16:34:54.707Z,101899.12
2018-11-27T16:37:24.644Z,101905.02
2018-11-27T16:39:54.775Z,101914.98
2018-11-27T16:42:30.419Z,101912.52
2018-11-27T16:44:56.381Z,101916.80
2018-11-27T16:47:26.446Z,101910.24
2018-11-27T16:49:56.366Z,101912.05
2018-11-27T16:52:26.425Z,101922.99
2018-11-27T16:54:57.125Z,101928.08
2018-11-27T16:57:27.389Z,101934.76
2018-11-27T16:59:57.469Z,101927.64
2018-11-27T17:02:30.104Z,101926.75
2018-11-27T17:05:00.080Z,101932.50
2018-11-27T17:07:30.086Z,101932.63
2018-11-27T17:10:00.019Z,101939.56
2018-11-27T17:12:30.314Z,101940.58
2018-11-27T17:15:00.360Z,101931.87
2018-11-27T17:17:31.226Z,101931.98
2018-11-27T17:20:02.163Z,101936.05
2018-11-27T17:22:32.159Z,101940.89
2018-11-27T17:25:02.320Z,101942.86
2018-11-27T17:27:32.377Z,101944.72
2018-11-27T17:30:02.658Z,101943.80
2018-11-27T17:32:32.645Z,101953.41
2018-11-27T17:35:02.550Z,101952.73
2018-11-27T17:37:32.706Z,101960.05
2018-11-27T17:40:02.821Z,101960.41
2018-11-27T17:42:32.823Z,101962.46
2018-11-27T17:45:02.837Z,101959.54
2018-11-27T17:47:32.723Z,101966.77
2018-11-27T17:50:05.787Z,101965.58
2018-11-27T17:52:36.088Z,101965.73
2018-11-27T17:55:07.205Z,101959.86
2018-11-27T17:57:37.570Z,101955.05
2018-11-27T18:00:18.442Z,101949.13
2018-11-27T18:02:52.674Z,101949.83
2018-11-27T18:05:22.646Z,101949.48
2018-11-27T18:07:52.708Z,101959.77
2018-11-27T18:10:22.697Z,101965.67
2018-11-27T18:12:52.592Z,101960.62
2018-11-27T18:15:23.357Z,101969.83
2018-11-27T18:17:53.559Z,101967.72
2018-11-27T18:20:23.600Z,101971.95
2018-11-27T18:22:53.756Z,101971.28
2018-11-27T18:25:25.472Z,101967.54
2018-11-27T18:27:55.569Z,101968.87
2018-11-27T18:30:25.679Z,101962.14
2018-11-27T18:32:55.790Z,101953.79
2018-11-27T18:35:26.682Z,101965.17
2018-11-27T18:37:56.685Z,101953.69
2018-11-27T18:40:26.655Z,101949.73
2018-11-27T18:42:56.740Z,101949.13
2018-11-27T18:45:31.325Z,101944.30
2018-11-27T18:48:02.070Z,101938.64
2018-11-27T18:50:33.759Z,101938.14
2018-11-27T18:53:06.961Z,101940.54
2018-11-27T18:55:37.102Z,101932.30
2018-11-27T18:58:07.167Z,101933.64
2018-11-27T19:00:37.450Z,101928.57
2018-11-27T19:03:07.486Z,101940.23
2018-11-27T19:05:37.345Z,101941.92
2018-11-27T19:08:07.637Z,101943.71
2018-11-27T19:10:37.591Z,101940.10
2018-11-27T19:13:08.331Z,101941.48
2018-11-27T19:15:49.531Z,101932.47
2018-11-27T19:18:25.713Z,101928.97
2018-11-27T19:20:56.590Z,101936.16
2018-11-27T19:23:27.668Z,101943.16
2018-11-27T19:25:57.639Z,101946.25
2018-11-27T19:28:27.791Z,101940.27
2018-11-27T19:30:57.750Z,101934.78
2018-11-27T19:33:27.701Z,101937.53
2018-11-27T19:35:57.683Z,101942.92
2018-11-27T19:38:27.611Z,101951.61
2018-11-27T19:40:57.665Z,101953.23
2018-11-27T19:43:27.756Z,101956.68
2018-11-27T19:45:57.842Z,101958.52
2018-11-27T19:48:27.846Z,101964.93
2018-11-27T19:50:57.891Z,101958.86
2018-11-27T19:53:27.980Z,101965.27
2018-11-27T19:55:58.059Z,101964.64
2018-11-27T19:58:28.035Z,101967.57
2018-11-27T20:00:58.024Z,101963.88
2018-11-27T20:03:28.034Z,101965.03
2018-11-27T20:05:58.040Z,101961.44
2018-11-27T20:08:28.018Z,101967.81
2018-11-27T20:10:58.039Z,101965.41
2018-11-27T20:13:28.858Z,101961.25
2018-11-27T20:15:58.837Z,101967.61
2018-11-27T20:18:28.777Z,101962.45
2018-11-27T20:20:58.884Z,101969.72
2018-11-27T20:23:28.983Z,101971.23
2018-11-27T20:25:59.111Z,101976.09
2018-11-27T20:28:29.113Z,101978.28
2018-11-27T20:30:59.075Z,101975.41
2018-11-27T20:33:29.139Z,101972.98
2018-11-27T20:35:59.170Z,101967.80
2018-11-27T20:38:29.289Z,101968.56
2018-11-27T20:40:59.595Z,101967.16
2018-11-27T20:43:29.741Z,101969.58
2018-11-27T20:46:00.565Z,101968.61
2018-11-27T20:48:31.426Z,101969.95
2018-11-27T20:51:01.354Z,101977.38
2018-11-27T20:53:31.440Z,101973.96
2018-11-27T20:56:01.490Z,101970.43
2018-11-27T20:58:31.536Z,101967.67
2018-11-27T21:01:01.606Z,101968.06
2018-11-27T21:03:31.510Z,101972.36
2018-11-27T21:06:01.609Z,101974.42
2018-11-27T21:08:31.626Z,101966.26
2018-11-27T21:11:01.529Z,101968.47
2018-11-27T21:13:31.613Z,101969.66
2018-11-27T21:16:01.550Z,101968.44
2018-11-27T21:18:31.561Z,101961.61
2018-11-27T21:21:01.743Z,101961.92
2018-11-27T21:23:32.551Z,101972.90
2018-11-27T21:26:05.157Z,101970.95
2018-11-27T21:28:35.845Z,101976.30
2018-11-27T21:31:07.712Z,101977.47
2018-11-27T21:33:37.595Z,101977.31
2018-11-27T21:36:07.723Z,101976.88
2018-11-27T21:38:37.786Z,101974.06
2018-11-27T21:41:08.055Z,101976.88
2018-11-27T21:43:38.721Z,101973.02
2018-11-27T21:46:08.779Z,101973.59
2018-11-27T21:48:38.704Z,101979.94
2018-11-27T21:51:09.464Z,101986.14
2018-11-27T21:53:39.504Z,101983.17
2018-11-27T21:56:09.596Z,101985.20
2018-11-27T21:58:39.676Z,101981.73
2018-11-27T22:01:09.913Z,101970.00
2018-11-27T22:03:39.826Z,101967.62
2018-11-27T22:06:09.921Z,101965.13
2018-11-27T22:08:46.509Z,101973.30
2018-11-27T22:11:16.459Z,101968.23
2018-11-27T22:13:47.388Z,101969.06
2018-11-27T22:16:17.313Z,101969.20
2018-11-27T22:18:47.286Z,101967.72
2018-11-27T22:21:17.155Z,101964.75
2018-11-27T22:23:47.118Z,101968.66
2018-11-27T22:26:17.265Z,101964.37
2018-11-27T22:28:47.247Z,101960.97
2018-11-27T22:31:17.187Z,101961.80
2018-11-27T22:33:47.430Z,101956.34
2018-11-27T22:36:17.319Z,101957.05
2018-11-27T22:38:47.269Z,101954.70
2018-11-27T22:41:17.230Z,101949.18
2018-11-27T22:43:47.994Z,101950.73
2018-11-27T22:46:18.244Z,101955.81
2018-11-27T22:48:49.078Z,101958.91
2018-11-27T22:51:19.074Z,101968.64
2018-11-27T22:53:49.067Z,101965.59
2018-11-27T22:56:18.959Z,101960.67
2018-11-27T22:58:49.102Z,101954.86
2018-11-27T23:01:19.015Z,101949.33
2018-11-27T23:03:49.474Z,101953.75
2018-11-27T23:06:19.524Z,101946.97
2018-11-27T23:08:49.593Z,101953.47
2018-11-27T23:11:19.687Z,101946.48
2018-11-27T23:13:49.751Z,101942.08
2018-11-27T23:16:20.509Z,101947.27
2018-11-27T23:18:50.514Z,101946.57
2018-11-27T23:21:20.429Z,101939.48
2018-11-27T23:23:50.398Z,101937.72
2018-11-27T23:26:20.362Z,101939.05
2018-11-27T23:28:50.381Z,101933.73
2018-11-27T23:31:20.409Z,101937.22
2018-11-27T23:33:51.209Z,101938.85
2018-11-27T23:36:21.771Z,101932.52
2018-11-27T23:38:51.728Z,101938.56
2018-11-27T23:41:21.742Z,101938.42
2018-11-27T23:43:51.748Z,101934.30
2018-11-27T23:46:21.852Z,101930.23
2018-11-27T23:48:52.588Z,101932.81
2018-11-27T23:51:22.680Z,101930.16
2018-11-27T23:53:52.594Z,101933.44
2018-11-27T23:56:23.430Z,101923.23
2018-11-27T23:58:53.422Z,101926.80
